Amalia, New Mexico
Current Conditions -  °F | °C
As of 4:35 PM on Saturday 22 Nov 2014 (Local Time) from KSKX Reporting Station
Clear Clear  
Wind Chill:   Ceiling: Unl
Heat Index:   Visibility: 10mi
Dew Point: -6°   Wind: 6mph
Humidity: 39%   Direction: 170°S
Pressure: 29.93"   Gusts: NA
Location:  36.94°N, 105.45°W
Report Text: KSKX 222335Z AUTO 17005KT 10SM CLR 07/M06 A2993 RMK AO1
Loading
Personal Weather Stations






























Interactive Weather Map New forecast layout! Learn more

10-Day Weather Forecast

Advertisements
Track Severe Weather on mobile